Elliston, Montana
Current Conditions -  °F | °C
As of 6:53 AM on Thursday 23 Oct 2014 (Local Time) from KHLN Reporting Station
Broken Clouds Broken Clouds  
Wind Chill: 56°   Ceiling: 7000
Heat Index: 56°   Visibility: 10mi
Dew Point: 29°   Wind: 10mph
Humidity: 36%   Direction: 210°SSW
Pressure: 29.87"   Gusts: 20mph
Location:  46.55°N, 112.44°W
Report Text: KHLN 231253Z 21009G17KT 10SM BKN070 13/M02 A2987 RMK AO2 SLP116 T01331017
Loading
Personal Weather Stations






























Interactive Weather Map
Tropical Storm Tracking
New forecast layout! Learn more

10-Day Weather Forecast

Advertisements
Track Severe Weather on mobile